sensor_id;sensor_type;location;lat;lon;timestamp;pressure;altitude;pressure_sealevel;temperature;humidity
61908;BME280;47864;52.526;19.672;2023-05-21T00:01:48;101697.88;;;15.67;100.00
61908;BME280;47864;52.526;19.672;2023-05-21T00:03:50;101704.63;;;15.71;100.00
61908;BME280;47864;52.526;19.672;2023-05-21T00:05:52;101696.38;;;15.65;100.00
61908;BME280;47864;52.526;19.672;2023-05-21T00:07:53;101681.09;;;15.57;100.00
61908;BME280;47864;52.526;19.672;2023-05-21T00:09:55;101696.38;;;15.65;100.00
61908;BME280;47864;52.526;19.672;2023-05-21T00:11:56;101700.41;;;15.69;100.00
61908;BME280;47864;52.526;19.672;2023-05-21T00:13:58;101700.25;;;15.70;100.00
61908;BME280;47864;52.526;19.672;2023-05-21T00:15:59;101702.28;;;15.76;100.00
61908;BME280;47864;52.526;19.672;2023-05-21T00:18:01;101703.81;;;15.79;100.00
61908;BME280;47864;52.526;19.672;2023-05-21T00:20:03;101702.19;;;15.86;100.00
61908;BME280;47864;52.526;19.672;2023-05-21T00:22:05;101700.84;;;15.90;100.00
61908;BME280;47864;52.526;19.672;2023-05-21T00:24:06;101687.28;;;15.83;100.00
61908;BME280;47864;52.526;19.672;2023-05-21T00:26:08;101709.97;;;15.97;100.00
61908;BME280;47864;52.526;19.672;2023-05-21T00:28:10;101708.28;;;15.96;100.00
61908;BME280;47864;52.526;19.672;2023-05-21T00:30:11;101701.56;;;15.92;100.00
61908;BME280;47864;52.526;19.672;2023-05-21T00:32:13;101700.19;;;15.88;100.00
61908;BME280;47864;52.526;19.672;2023-05-21T00:34:15;101693.56;;;15.74;100.00
61908;BME280;47864;52.526;19.672;2023-05-21T00:36:17;101701.78;;;15.73;100.00
61908;BME280;47864;52.526;19.672;2023-05-21T00:38:18;101705.13;;;15.75;100.00
61908;BME280;47864;52.526;19.672;2023-05-21T00:40:20;101701.88;;;15.63;100.00
61908;BME280;47864;52.526;19.672;2023-05-21T00:42:22;101688.50;;;15.45;100.00
61908;BME280;47864;52.526;19.672;2023-05-21T00:44:24;101675.16;;;15.28;100.00
61908;BME280;47864;52.526;19.672;2023-05-21T00:46:26;101684.19;;;15.27;100.00
61908;BME280;47864;52.526;19.672;2023-05-21T00:48:27;101700.22;;;15.27;100.00
61908;BME280;47864;52.526;19.672;2023-05-21T00:50:29;101701.69;;;15.21;100.00
61908;BME280;47864;52.526;19.672;2023-05-21T00:52:31;101691.75;;;14.96;100.00
61908;BME280;47864;52.526;19.672;2023-05-21T00:54:33;101701.59;;;14.95;100.00
61908;BME280;47864;52.526;19.672;2023-05-21T00:56:35;101660.66;;;14.59;100.00
61908;BME280;47864;52.526;19.672;2023-05-21T00:58:37;101695.47;;;14.67;100.00
61908;BME280;47864;52.526;19.672;2023-05-21T01:00:40;101703.25;;;14.61;100.00
61908;BME280;47864;52.526;19.672;2023-05-21T01:02:41;101704.84;;;14.54;100.00
61908;BME280;47864;52.526;19.672;2023-05-21T01:04:44;101697.56;;;14.46;100.00
61908;BME280;47864;52.526;19.672;2023-05-21T01:06:46;101693.25;;;14.35;100.00
61908;BME280;47864;52.526;19.672;2023-05-21T01:08:47;101706.06;;;14.32;100.00
61908;BME280;47864;52.526;19.672;2023-05-21T01:10:49;101700.75;;;14.22;100.00
61908;BME280;47864;52.526;19.672;2023-05-21T01:12:54;101704.16;;;14.15;100.00
61908;BME280;47864;52.526;19.672;2023-05-21T01:14:57;101704.59;;;14.10;100.00
61908;BME280;47864;52.526;19.672;2023-05-21T01:16:59;101703.22;;;14.06;100.00
61908;BME280;47864;52.526;19.672;2023-05-21T01:19:03;101699.97;;;14.02;100.00
61908;BME280;47864;52.526;19.672;2023-05-21T01:21:05;101702.00;;;13.91;100.00
61908;BME280;47864;52.526;19.672;2023-05-21T01:23:07;101691.06;;;13.84;100.00
61908;BME280;47864;52.526;19.672;2023-05-21T01:25:09;101700.06;;;13.83;100.00
61908;BME280;47864;52.526;19.672;2023-05-21T01:27:11;101663.78;;;13.53;100.00
61908;BME280;47864;52.526;19.672;2023-05-21T01:29:13;101701.19;;;13.81;100.00
61908;BME280;47864;52.526;19.672;2023-05-21T01:33:58;101703.19;;;13.69;100.00
61908;BME280;47864;52.526;19.672;2023-05-21T01:36:07;101701.09;;;13.63;100.00
61908;BME280;47864;52.526;19.672;2023-05-21T01:38:28;101699.00;;;13.57;100.00
61908;BME280;47864;52.526;19.672;2023-05-21T01:40:50;101704.22;;;13.49;100.00
61908;BME280;47864;52.526;19.672;2023-05-21T01:42:53;101700.13;;;13.45;100.00
61908;BME280;47864;52.526;19.672;2023-05-21T01:44:55;101694.53;;;13.48;100.00
61908;BME280;47864;52.526;19.672;2023-05-21T01:46:59;101682.63;;;13.42;100.00
61908;BME280;47864;52.526;19.672;2023-05-21T01:49:04;101686.81;;;13.35;100.00
61908;BME280;47864;52.526;19.672;2023-05-21T01:51:06;101657.69;;;13.14;100.00
61908;BME280;47864;52.526;19.672;2023-05-21T01:53:07;101691.16;;;13.26;100.00
61908;BME280;47864;52.526;19.672;2023-05-21T01:55:09;101690.06;;;13.19;100.00
61908;BME280;47864;52.526;19.672;2023-05-21T01:57:11;101686.97;;;13.14;100.00
61908;BME280;47864;52.526;19.672;2023-05-21T01:59:12;101691.88;;;13.19;100.00
61908;BME280;47864;52.526;19.672;2023-05-21T02:01:14;101693.28;;;13.13;100.00
61908;BME280;47864;52.526;19.672;2023-05-21T02:03:16;101682.03;;;13.10;100.00
61908;BME280;47864;52.526;19.672;2023-05-21T02:05:18;101693.38;;;13.12;100.00
61908;BME280;47864;52.526;19.672;2023-05-21T02:07:20;101677.56;;;13.01;100.00
61908;BME280;47864;52.526;19.672;2023-05-21T02:09:21;101683.75;;;13.01;100.00
61908;BME280;47864;52.526;19.672;2023-05-21T02:11:23;101690.56;;;12.94;100.00
61908;BME280;47864;52.526;19.672;2023-05-21T02:13:24;101688.75;;;12.94;100.00
61908;BME280;47864;52.526;19.672;2023-05-21T02:15:27;101691.56;;;12.93;100.00
61908;BME280;47864;52.526;19.672;2023-05-21T02:17:28;101672.63;;;12.86;100.00
61908;BME280;47864;52.526;19.672;2023-05-21T02:19:30;101693.56;;;13.01;100.00
61908;BME280;47864;52.526;19.672;2023-05-21T02:21:32;101678.25;;;12.93;100.00
61908;BME280;47864;52.526;19.672;2023-05-21T02:23:33;101688.50;;;12.98;100.00
61908;BME280;47864;52.526;19.672;2023-05-21T02:25:35;101686.66;;;12.98;100.00
61908;BME280;47864;52.526;19.672;2023-05-21T02:27:37;101676.16;;;12.87;100.00
61908;BME280;47864;52.526;19.672;2023-05-21T02:29:39;101682.88;;;12.91;100.00
61908;BME280;47864;52.526;19.672;2023-05-21T02:31:41;101681.59;;;12.85;100.00
61908;BME280;47864;52.526;19.672;2023-05-21T02:33:42;101689.88;;;12.82;100.00
61908;BME280;47864;52.526;19.672;2023-05-21T02:35:44;101671.38;;;12.81;100.00
61908;BME280;47864;52.526;19.672;2023-05-21T02:37:46;101678.09;;;12.85;100.00
61908;BME280;47864;52.526;19.672;2023-05-21T02:39:47;101676.44;;;12.84;100.00
61908;BME280;47864;52.526;19.672;2023-05-21T02:41:49;101653.69;;;12.70;100.00
61908;BME280;47864;52.526;19.672;2023-05-21T02:43:50;101677.56;;;12.81;100.00
61908;BME280;47864;52.526;19.672;2023-05-21T02:45:52;101669.97;;;12.77;100.00
61908;BME280;47864;52.526;19.672;2023-05-21T02:47:53;101649.22;;;12.61;100.00
61908;BME280;47864;52.526;19.672;2023-05-21T02:49:58;101680.06;;;12.73;100.00
61908;BME280;47864;52.526;19.672;2023-05-21T02:52:00;101658.16;;;12.60;100.00
61908;BME280;47864;52.526;19.672;2023-05-21T02:54:02;101662.38;;;12.63;100.00
61908;BME280;47864;52.526;19.672;2023-05-21T02:56:04;101653.69;;;12.51;100.00
61908;BME280;47864;52.526;19.672;2023-05-21T02:58:06;101662.94;;;12.56;100.00
61908;BME280;47864;52.526;19.672;2023-05-21T03:00:08;101672.47;;;12.59;100.00
61908;BME280;47864;52.526;19.672;2023-05-21T03:02:09;101664.34;;;12.51;100.00
61908;BME280;47864;52.526;19.672;2023-05-21T03:04:11;101650.88;;;12.52;100.00
61908;BME280;47864;52.526;19.672;2023-05-21T03:06:13;101663.78;;;12.57;100.00
61908;BME280;47864;52.526;19.672;2023-05-21T03:08:14;101647.38;;;12.52;100.00
61908;BME280;47864;52.526;19.672;2023-05-21T03:10:16;101660.00;;;12.69;100.00
61908;BME280;47864;52.526;19.672;2023-05-21T03:12:17;101670.25;;;12.74;100.00
61908;BME280;47864;52.526;19.672;2023-05-21T03:14:19;101663.38;;;12.81;100.00
61908;BME280;47864;52.526;19.672;2023-05-21T03:16:20;101665.09;;;12.91;100.00
61908;BME280;47864;52.526;19.672;2023-05-21T03:18:22;101643.78;;;12.82;100.00
61908;BME280;47864;52.526;19.672;2023-05-21T03:20:24;101663.28;;;12.92;100.00
61908;BME280;47864;52.526;19.672;2023-05-21T03:22:26;101641.13;;;12.82;100.00
61908;BME280;47864;52.526;19.672;2023-05-21T03:24:28;101666.63;;;13.04;100.00
61908;BME280;47864;52.526;19.672;2023-05-21T03:26:30;101664.78;;;13.04;100.00
61908;BME280;47864;52.526;19.672;2023-05-21T03:28:32;101654.28;;;13.03;100.00
61908;BME280;47864;52.526;19.672;2023-05-21T03:30:33;101669.88;;;13.17;100.00
61908;BME280;47864;52.526;19.672;2023-05-21T03:32:35;101668.03;;;13.27;100.00
61908;BME280;47864;52.526;19.672;2023-05-21T03:34:36;101669.97;;;13.34;100.00
61908;BME280;47864;52.526;19.672;2023-05-21T03:36:38;101649.09;;;13.30;100.00
61908;BME280;47864;52.526;19.672;2023-05-21T03:38:39;101623.16;;;13.22;100.00
61908;BME280;47864;52.526;19.672;2023-05-21T03:40:41;101671.75;;;13.63;100.00
61908;BME280;47864;52.526;19.672;2023-05-21T03:42:42;101654.34;;;13.59;100.00
61908;BME280;47864;52.526;19.672;2023-05-21T03:44:45;101666.28;;;13.74;100.00
61908;BME280;47864;52.526;19.672;2023-05-21T03:46:46;101657.69;;;13.80;100.00
61908;BME280;47864;52.526;19.672;2023-05-21T03:48:48;101672.22;;;13.95;100.00
61908;BME280;47864;52.526;19.672;2023-05-21T03:50:50;101670.25;;;13.97;100.00
61908;BME280;47864;52.526;19.672;2023-05-21T03:52:51;101669.50;;;14.05;100.00
61908;BME280;47864;52.526;19.672;2023-05-21T03:54:53;101679.16;;;14.16;100.00
61908;BME280;47864;52.526;19.672;2023-05-21T03:56:54;101677.81;;;14.29;100.00
61908;BME280;47864;52.526;19.672;2023-05-21T03:58:56;101672.84;;;14.44;100.00
61908;BME280;47864;52.526;19.672;2023-05-21T04:00:57;101675.25;;;14.65;100.00
61908;BME280;47864;52.526;19.672;2023-05-21T04:02:59;101676.78;;;15.03;100.00
61908;BME280;47864;52.526;19.672;2023-05-21T04:05:01;101641.81;;;15.14;100.00
61908;BME280;47864;52.526;19.672;2023-05-21T04:07:02;101668.25;;;15.43;100.00
61908;BME280;47864;52.526;19.672;2023-05-21T04:09:04;101663.59;;;15.63;100.00
61908;BME280;47864;52.526;19.672;2023-05-21T04:11:06;101638.94;;;15.77;100.00
61908;BME280;47864;52.526;19.672;2023-05-21T04:13:07;101664.47;;;15.97;100.00
61908;BME280;47864;52.526;19.672;2023-05-21T04:15:09;101635.53;;;16.51;100.00
61908;BME280;47864;52.526;19.672;2023-05-21T04:17:11;101648.16;;;16.83;100.00
61908;BME280;47864;52.526;19.672;2023-05-21T04:19:12;101664.78;;;17.02;100.00
61908;BME280;47864;52.526;19.672;2023-05-21T04:21:14;101660.41;;;17.26;100.00
61908;BME280;47864;52.526;19.672;2023-05-21T04:23:16;101661.91;;;17.69;100.00
61908;BME280;47864;52.526;19.672;2023-05-21T04:25:17;101666.19;;;18.02;100.00
61908;BME280;47864;52.526;19.672;2023-05-21T04:27:20;101671.44;;;18.27;100.00
61908;BME280;47864;52.526;19.672;2023-05-21T04:29:22;101658.84;;;18.27;100.00
61908;BME280;47864;52.526;19.672;2023-05-21T04:31:24;101654.94;;;18.38;100.00
61908;BME280;47864;52.526;19.672;2023-05-21T04:33:25;101652.16;;;18.54;100.00
61908;BME280;47864;52.526;19.672;2023-05-21T04:35:27;101636.84;;;18.62;100.00
61908;BME280;47864;52.526;19.672;2023-05-21T04:37:30;101664.78;;;18.84;96.71
61908;BME280;47864;52.526;19.672;2023-05-21T04:39:32;101648.59;;;19.67;94.47
61908;BME280;47864;52.526;19.672;2023-05-21T04:41:33;101655.31;;;20.51;90.20
61908;BME280;47864;52.526;19.672;2023-05-21T04:43:35;101653.44;;;20.88;79.71
61908;BME280;47864;52.526;19.672;2023-05-21T04:45:36;101657.81;;;20.53;76.66
61908;BME280;47864;52.526;19.672;2023-05-21T04:47:38;101626.84;;;20.64;81.13
61908;BME280;47864;52.526;19.672;2023-05-21T04:49:40;101655.44;;;21.22;76.00
61908;BME280;47864;52.526;19.672;2023-05-21T04:51:42;101640.41;;;21.69;73.86
61908;BME280;47864;52.526;19.672;2023-05-21T04:53:43;101661.00;;;21.76;65.74
61908;BME280;47864;52.526;19.672;2023-05-21T04:55:45;101647.78;;;22.22;61.83
61908;BME280;47864;52.526;19.672;2023-05-21T04:57:46;101645.50;;;22.26;62.13
61908;BME280;47864;52.526;19.672;2023-05-21T04:59:48;101642.91;;;22.52;58.52
61908;BME280;47864;52.526;19.672;2023-05-21T05:01:50;101648.44;;;23.25;58.41
61908;BME280;47864;52.526;19.672;2023-05-21T05:03:52;101659.09;;;23.52;54.73
61908;BME280;47864;52.526;19.672;2023-05-21T05:05:54;101653.16;;;23.88;53.72
61908;BME280;47864;52.526;19.672;2023-05-21T05:07:55;101650.47;;;24.46;52.00
61908;BME280;47864;52.526;19.672;2023-05-21T05:09:57;101654.56;;;24.11;51.88
61908;BME280;47864;52.526;19.672;2023-05-21T05:11:58;101654.19;;;24.01;50.76
61908;BME280;47864;52.526;19.672;2023-05-21T05:14:00;101657.50;;;24.09;51.79
61908;BME280;47864;52.526;19.672;2023-05-21T05:16:02;101650.22;;;24.03;55.42
61908;BME280;47864;52.526;19.672;2023-05-21T05:18:03;101650.69;;;23.87;51.09
61908;BME280;47864;52.526;19.672;2023-05-21T05:20:08;101658.94;;;24.12;52.47
61908;BME280;47864;52.526;19.672;2023-05-21T05:22:11;101663.25;;;24.33;50.99
61908;BME280;47864;52.526;19.672;2023-05-21T05:24:14;101661.63;;;24.70;53.83
61908;BME280;47864;52.526;19.672;2023-05-21T05:26:15;101650.88;;;24.50;52.08
61908;BME280;47864;52.526;19.672;2023-05-21T05:28:17;101672.16;;;24.46;54.23
61908;BME280;47864;52.526;19.672;2023-05-21T05:30:19;101665.22;;;24.57;49.10
61908;BME280;47864;52.526;19.672;2023-05-21T05:32:20;101665.69;;;24.92;47.63
61908;BME280;47864;52.526;19.672;2023-05-21T05:34:22;101662.56;;;25.20;45.87
61908;BME280;47864;52.526;19.672;2023-05-21T05:36:24;101661.66;;;25.26;46.02
61908;BME280;47864;52.526;19.672;2023-05-21T05:38:25;101657.28;;;25.00;46.94
61908;BME280;47864;52.526;19.672;2023-05-21T05:40:27;101664.47;;;24.81;48.85
61908;BME280;47864;52.526;19.672;2023-05-21T05:42:29;101672.91;;;25.29;47.43
61908;BME280;47864;52.526;19.672;2023-05-21T05:44:30;101668.25;;;25.12;47.46
61908;BME280;47864;52.526;19.672;2023-05-21T05:46:32;101665.81;;;24.65;46.67
61908;BME280;47864;52.526;19.672;2023-05-21T05:48:33;101667.22;;;24.37;47.96
61908;BME280;47864;52.526;19.672;2023-05-21T05:50:35;101665.75;;;24.79;48.12
61908;BME280;47864;52.526;19.672;2023-05-21T05:52:37;101651.81;;;24.17;47.12
61908;BME280;47864;52.526;19.672;2023-05-21T05:54:38;101661.31;;;24.53;47.52
61908;BME280;47864;52.526;19.672;2023-05-21T05:56:40;101631.22;;;24.10;48.71
61908;BME280;47864;52.526;19.672;2023-05-21T05:58:41;101659.13;;;24.68;47.72
61908;BME280;47864;52.526;19.672;2023-05-21T06:00:43;101636.06;;;25.15;47.76
61908;BME280;47864;52.526;19.672;2023-05-21T06:02:44;101646.97;;;25.33;46.43
61908;BME280;47864;52.526;19.672;2023-05-21T06:04:46;101647.19;;;25.07;46.12
61908;BME280;47864;52.526;19.672;2023-05-21T06:06:48;101639.97;;;25.87;43.55
61908;BME280;47864;52.526;19.672;2023-05-21T06:08:49;101645.25;;;25.82;43.59
61908;BME280;47864;52.526;19.672;2023-05-21T06:10:51;101630.81;;;25.63;43.79
61908;BME280;47864;52.526;19.672;2023-05-21T06:12:52;101650.94;;;25.99;42.43
61908;BME280;47864;52.526;19.672;2023-05-21T06:14:54;101647.16;;;26.18;42.00
61908;BME280;47864;52.526;19.672;2023-05-21T06:16:55;101651.47;;;26.07;42.53
61908;BME280;47864;52.526;19.672;2023-05-21T06:18:57;101637.41;;;26.10;42.86
61908;BME280;47864;52.526;19.672;2023-05-21T06:20:59;101638.53;;;26.39;41.77
61908;BME280;47864;52.526;19.672;2023-05-21T06:23:00;101635.06;;;25.96;41.41
61908;BME280;47864;52.526;19.672;2023-05-21T06:25:02;101651.44;;;25.89;42.73
61908;BME280;47864;52.526;19.672;2023-05-21T06:27:04;101651.75;;;25.99;43.70
61908;BME280;47864;52.526;19.672;2023-05-21T06:29:05;101642.75;;;26.17;41.02
61908;BME280;47864;52.526;19.672;2023-05-21T06:31:07;101641.16;;;25.73;43.02
61908;BME280;47864;52.526;19.672;2023-05-21T06:33:08;101629.72;;;24.96;44.78
61908;BME280;47864;52.526;19.672;2023-05-21T06:35:10;101647.88;;;25.46;42.77
61908;BME280;47864;52.526;19.672;2023-05-21T06:37:12;101640.59;;;26.26;41.72
61908;BME280;47864;52.526;19.672;2023-05-21T06:39:13;101649.28;;;26.34;42.46
61908;BME280;47864;52.526;19.672;2023-05-21T06:41:15;101641.00;;;26.23;41.94
61908;BME280;47864;52.526;19.672;2023-05-21T06:43:17;101651.91;;;26.23;42.12
61908;BME280;47864;52.526;19.672;2023-05-21T06:45:18;101661.69;;;26.60;41.93
61908;BME280;47864;52.526;19.672;2023-05-21T06:47:20;101655.88;;;26.57;41.49
61908;BME280;47864;52.526;19.672;2023-05-21T06:49:22;101647.16;;;26.78;40.57
61908;BME280;47864;52.526;19.672;2023-05-21T06:51:23;101643.81;;;26.64;39.90
61908;BME280;47864;52.526;19.672;2023-05-21T06:53:25;101648.28;;;25.92;41.81
61908;BME280;47864;52.526;19.672;2023-05-21T06:55:26;101640.63;;;26.37;41.70
61908;BME280;47864;52.526;19.672;2023-05-21T06:57:28;101628.69;;;26.98;40.81
61908;BME280;47864;52.526;19.672;2023-05-21T06:59:30;101639.03;;;27.31;41.90
61908;BME280;47864;52.526;19.672;2023-05-21T07:01:31;101642.28;;;28.03;39.39
61908;BME280;47864;52.526;19.672;2023-05-21T07:03:35;101648.38;;;27.35;39.15
61908;BME280;47864;52.526;19.672;2023-05-21T07:05:36;101649.22;;;27.47;37.69
61908;BME280;47864;52.526;19.672;2023-05-21T07:07:38;101652.28;;;27.39;39.24
61908;BME280;47864;52.526;19.672;2023-05-21T07:09:40;101645.53;;;27.30;39.80
61908;BME280;47864;52.526;19.672;2023-05-21T07:11:42;101636.41;;;27.48;39.35
61908;BME280;47864;52.526;19.672;2023-05-21T07:13:43;101625.63;;;27.41;38.85
61908;BME280;47864;52.526;19.672;2023-05-21T07:15:45;101635.84;;;27.34;39.15
61908;BME280;47864;52.526;19.672;2023-05-21T07:17:47;101625.97;;;27.91;39.30
61908;BME280;47864;52.526;19.672;2023-05-21T07:19:48;101614.38;;;27.73;38.19
61908;BME280;47864;52.526;19.672;2023-05-21T07:21:50;101632.75;;;27.54;39.23
61908;BME280;47864;52.526;19.672;2023-05-21T07:23:51;101632.53;;;27.67;38.45
61908;BME280;47864;52.526;19.672;2023-05-21T07:25:53;101639.03;;;27.31;39.69
61908;BME280;47864;52.526;19.672;2023-05-21T07:27:54;101615.16;;;26.50;41.32
61908;BME280;47864;52.526;19.672;2023-05-21T07:29:56;101626.00;;;26.80;40.88
61908;BME280;47864;52.526;19.672;2023-05-21T07:31:57;101634.75;;;27.47;39.54
61908;BME280;47864;52.526;19.672;2023-05-21T07:33:59;101634.63;;;27.30;39.98
61908;BME280;47864;52.526;19.672;2023-05-21T07:36:00;101611.66;;;27.49;38.48
61908;BME280;47864;52.526;19.672;2023-05-21T07:38:02;101634.16;;;27.21;39.70
61908;BME280;47864;52.526;19.672;2023-05-21T07:40:04;101619.22;;;27.47;38.70
61908;BME280;47864;52.526;19.672;2023-05-21T07:42:06;101611.28;;;27.46;37.40
61908;BME280;47864;52.526;19.672;2023-05-21T07:44:07;101626.13;;;27.73;37.95
61908;BME280;47864;52.526;19.672;2023-05-21T07:46:09;101626.28;;;27.02;38.25
61908;BME280;47864;52.526;19.672;2023-05-21T07:48:10;101628.44;;;27.00;39.70
61908;BME280;47864;52.526;19.672;2023-05-21T07:50:13;101623.38;;;27.38;38.14
61908;BME280;47864;52.526;19.672;2023-05-21T07:52:14;101625.03;;;27.39;37.91
61908;BME280;47864;52.526;19.672;2023-05-21T07:54:16;101614.25;;;26.68;40.95
61908;BME280;47864;52.526;19.672;2023-05-21T07:56:18;101623.53;;;26.90;38.58
61908;BME280;47864;52.526;19.672;2023-05-21T07:58:19;101618.91;;;27.55;38.10
61908;BME280;47864;52.526;19.672;2023-05-21T08:00:22;101623.47;;;27.90;37.37
61908;BME280;47864;52.526;19.672;2023-05-21T08:02:24;101604.25;;;27.85;39.26
61908;BME280;47864;52.526;19.672;2023-05-21T08:04:25;101612.09;;;27.11;37.04
61908;BME280;47864;52.526;19.672;2023-05-21T08:06:27;101616.50;;;27.36;37.11
61908;BME280;47864;52.526;19.672;2023-05-21T08:08:29;101615.13;;;27.56;38.81
61908;BME280;47864;52.526;19.672;2023-05-21T08:10:30;101618.63;;;27.45;36.21
61908;BME280;47864;52.526;19.672;2023-05-21T08:12:32;101621.59;;;26.67;39.87
61908;BME280;47864;52.526;19.672;2023-05-21T08:14:33;101617.59;;;26.81;41.47
61908;BME280;47864;52.526;19.672;2023-05-21T08:16:35;101619.91;;;26.96;39.26
61908;BME280;47864;52.526;19.672;2023-05-21T08:18:36;101620.50;;;27.10;37.35
61908;BME280;47864;52.526;19.672;2023-05-21T08:20:38;101620.63;;;27.26;40.87
61908;BME280;47864;52.526;19.672;2023-05-21T08:22:40;101603.56;;;27.19;38.12
61908;BME280;47864;52.526;19.672;2023-05-21T08:24:42;101594.22;;;27.04;36.82
61908;BME280;47864;52.526;19.672;2023-05-21T08:26:43;101612.47;;;27.15;37.92
61908;BME280;47864;52.526;19.672;2023-05-21T08:28:45;101612.38;;;27.33;36.80
61908;BME280;47864;52.526;19.672;2023-05-21T08:30:46;101616.34;;;26.96;36.32
61908;BME280;47864;52.526;19.672;2023-05-21T08:32:48;101619.06;;;26.96;36.61
61908;BME280;47864;52.526;19.672;2023-05-21T08:34:50;101610.97;;;26.89;34.76
61908;BME280;47864;52.526;19.672;2023-05-21T08:36:51;101599.56;;;26.09;34.75
61908;BME280;47864;52.526;19.672;2023-05-21T08:38:54;101595.88;;;26.51;34.34
61908;BME280;47864;52.526;19.672;2023-05-21T08:40:57;101612.31;;;26.08;35.08
61908;BME280;47864;52.526;19.672;2023-05-21T08:42:59;101610.44;;;25.72;35.51
61908;BME280;47864;52.526;19.672;2023-05-21T08:45:03;101604.56;;;25.94;36.88
61908;BME280;47864;52.526;19.672;2023-05-21T08:47:06;101612.25;;;25.78;35.66
61908;BME280;47864;52.526;19.672;2023-05-21T08:49:11;101608.81;;;26.20;35.53
61908;BME280;47864;52.526;19.672;2023-05-21T08:51:13;101612.78;;;26.05;36.01
61908;BME280;47864;52.526;19.672;2023-05-21T08:53:14;101607.28;;;25.94;34.66
61908;BME280;47864;52.526;19.672;2023-05-21T08:55:29;101584.91;;;26.10;35.71
61908;BME280;47864;52.526;19.672;2023-05-21T08:57:32;101606.00;;;26.74;35.56
61908;BME280;47864;52.526;19.672;2023-05-21T08:59:33;101604.66;;;26.65;34.85
61908;BME280;47864;52.526;19.672;2023-05-21T09:01:35;101611.44;;;26.74;34.86
61908;BME280;47864;52.526;19.672;2023-05-21T09:03:39;101604.88;;;26.64;34.14
61908;BME280;47864;52.526;19.672;2023-05-21T09:05:42;101612.47;;;26.32;31.88
61908;BME280;47864;52.526;19.672;2023-05-21T09:07:58;101603.88;;;26.46;33.76
61908;BME280;47864;52.526;19.672;2023-05-21T09:10:05;101605.22;;;26.26;33.47
61908;BME280;47864;52.526;19.672;2023-05-21T09:12:07;101611.41;;;25.78;33.32
61908;BME280;47864;52.526;19.672;2023-05-21T09:14:10;101603.25;;;25.78;33.43
61908;BME280;47864;52.526;19.672;2023-05-21T09:16:11;101604.66;;;25.44;33.38
61908;BME280;47864;52.526;19.672;2023-05-21T09:18:13;101607.84;;;25.16;35.49
61908;BME280;47864;52.526;19.672;2023-05-21T09:20:15;101597.25;;;25.33;35.21
61908;BME280;47864;52.526;19.672;2023-05-21T09:22:22;101595.47;;;25.20;35.39
61908;BME280;47864;52.526;19.672;2023-05-21T09:24:23;101597.16;;;25.39;36.00
61908;BME280;47864;52.526;19.672;2023-05-21T09:26:25;101580.44;;;25.43;35.60
61908;BME280;47864;52.526;19.672;2023-05-21T09:28:28;101592.47;;;25.28;35.55
61908;BME280;47864;52.526;19.672;2023-05-21T09:30:29;101573.22;;;25.30;34.56
61908;BME280;47864;52.526;19.672;2023-05-21T09:32:35;101582.94;;;25.44;33.43
61908;BME280;47864;52.526;19.672;2023-05-21T09:34:36;101577.84;;;25.48;33.59
61908;BME280;47864;52.526;19.672;2023-05-21T09:36:38;101582.13;;;25.80;34.04
61908;BME280;47864;52.526;19.672;2023-05-21T09:38:39;101573.00;;;25.74;33.74
61908;BME280;47864;52.526;19.672;2023-05-21T09:40:44;101585.00;;;25.85;34.35
61908;BME280;47864;52.526;19.672;2023-05-21T09:42:48;101598.31;;;25.50;35.38
61908;BME280;47864;52.526;19.672;2023-05-21T09:44:49;101587.97;;;25.40;34.60
61908;BME280;47864;52.526;19.672;2023-05-21T09:46:55;101572.59;;;25.71;36.35
61908;BME280;47864;52.526;19.672;2023-05-21T09:48:57;101585.88;;;25.97;34.45
61908;BME280;47864;52.526;19.672;2023-05-21T09:51:15;101591.00;;;26.24;33.90
61908;BME280;47864;52.526;19.672;2023-05-21T09:53:17;101572.44;;;25.48;34.90
61908;BME280;47864;52.526;19.672;2023-05-21T09:55:21;101576.41;;;25.27;34.18
61908;BME280;47864;52.526;19.672;2023-05-21T09:57:26;101581.88;;;25.20;35.68
61908;BME280;47864;52.526;19.672;2023-05-21T09:59:37;101578.44;;;25.74;35.37
61908;BME280;47864;52.526;19.672;2023-05-21T10:01:39;101563.84;;;25.87;34.14
61908;BME280;47864;52.526;19.672;2023-05-21T10:03:43;101564.75;;;25.63;34.06
61908;BME280;47864;52.526;19.672;2023-05-21T10:05:52;101575.34;;;26.19;35.65
61908;BME280;47864;52.526;19.672;2023-05-21T10:07:59;101580.44;;;26.15;35.37
61908;BME280;47864;52.526;19.672;2023-05-21T10:10:03;101565.28;;;25.90;35.07
61908;BME280;47864;52.526;19.672;2023-05-21T10:12:05;101567.13;;;25.59;36.02
61908;BME280;47864;52.526;19.672;2023-05-21T10:14:16;101566.78;;;25.49;35.84
61908;BME280;47864;52.526;19.672;2023-05-21T10:16:20;101570.25;;;25.56;36.73
61908;BME280;47864;52.526;19.672;2023-05-21T10:18:22;101569.84;;;25.34;36.41
61908;BME280;47864;52.526;19.672;2023-05-21T10:20:24;101577.50;;;25.81;36.22
61908;BME280;47864;52.526;19.672;2023-05-21T10:22:27;101566.09;;;25.90;35.82
61908;BME280;47864;52.526;19.672;2023-05-21T10:24:28;101560.00;;;26.25;36.16
61908;BME280;47864;52.526;19.672;2023-05-21T10:26:30;101556.41;;;26.12;35.46
61908;BME280;47864;52.526;19.672;2023-05-21T10:28:32;101554.00;;;26.04;33.12
61908;BME280;47864;52.526;19.672;2023-05-21T10:30:35;101550.00;;;26.07;32.95